Time;durP1;ratioP1;P1;durP2;ratioP2;P2;SDS_P1;SDS_P2;PMS_P1;PMS_P2;Temp;Humidity;BMP_temperature;BMP_pressure;BME280_temperature;BME280_humidity;BME280_pressure;Samples;Min_cycle;Max_cycle;Signal;HPM_P1;HPM_P2
2023/06/04 00:02:17;;;;;;;2.45;2.35;;;;;;;;;;4993056;28;20771;-87
2023/06/04 00:04:44;;;;;;;2.78;2.47;;;;;;;;;;4994057;28;20215;-88
2023/06/04 00:07:11;;;;;;;2.45;2.25;;;;;;;;;;4993846;28;20210;-88
2023/06/04 00:09:38;;;;;;;11.15;2.58;;;;;;;;;;4993091;28;20688;-89
2023/06/04 00:12:06;;;;;;;2.08;1.98;;;;;;;;;;4992295;28;20285;-88
2023/06/04 00:14:35;;;;;;;2.65;2.45;;;;;;;;;;4993965;28;20202;-89
2023/06/04 00:17:02;;;;;;;2.83;2.63;;;;;;;;;;4993651;28;20197;-89
2023/06/04 00:19:28;;;;;;;3.05;2.33;;;;;;;;;;4993270;28;20215;-88
2023/06/04 00:21:56;;;;;;;3.83;2.95;;;;;;;;;;4993999;28;20243;-89
2023/06/04 00:24:23;;;;;;;3.25;2.95;;;;;;;;;;4994083;28;20236;-88
2023/06/04 00:26:50;;;;;;;2.13;2.03;;;;;;;;;;4993363;28;20346;-88
2023/06/04 00:29:18;;;;;;;3.10;2.85;;;;;;;;;;5003905;28;20200;-88
2023/06/04 00:31:46;;;;;;;3.00;2.80;;;;;;;;;;5006907;28;20204;-88
2023/06/04 00:34:13;;;;;;;3.63;2.63;;;;;;;;;;4994347;28;20204;-89
2023/06/04 00:36:40;;;;;;;3.33;3.10;;;;;;;;;;4993501;28;20199;-89
2023/06/04 00:39:08;;;;;;;3.30;2.92;;;;;;;;;;4993383;28;20582;-88
2023/06/04 00:41:34;;;;;;;3.33;2.85;;;;;;;;;;4991303;28;20251;-88
2023/06/04 00:44:02;;;;;;;3.08;2.60;;;;;;;;;;4992530;28;20203;-88
2023/06/04 00:46:31;;;;;;;3.78;2.50;;;;;;;;;;4991967;28;20201;-87
2023/06/04 00:49:00;;;;;;;5.43;2.72;;;;;;;;;;4991423;28;20365;-88
2023/06/04 00:51:27;;;;;;;2.78;2.58;;;;;;;;;;4992182;28;20633;-89
2023/06/04 00:53:56;;;;;;;3.67;2.90;;;;;;;;;;4992263;28;20298;-88
2023/06/04 00:56:22;;;;;;;3.25;3.05;;;;;;;;;;4991217;28;20208;-88
2023/06/04 00:58:49;;;;;;;4.80;2.70;;;;;;;;;;4992485;28;20318;-87
2023/06/04 01:01:27;;;;;;;3.03;2.78;;;;;;;;;;4992007;28;20616;-87
2023/06/04 01:03:55;;;;;;;3.15;2.85;;;;;;;;;;4994076;28;20297;-89
2023/06/04 01:06:28;;;;;;;3.22;2.90;;;;;;;;;;4994179;28;20241;-88
2023/06/04 01:09:02;;;;;;;2.90;2.60;;;;;;;;;;4992579;28;20214;-88
2023/06/04 01:11:36;;;;;;;3.17;2.88;;;;;;;;;;4992418;28;20223;-88
2023/06/04 01:14:04;;;;;;;2.63;2.42;;;;;;;;;;4992058;28;20214;-88
2023/06/04 01:16:33;;;;;;;3.03;2.83;;;;;;;;;;4992324;28;20247;-88
2023/06/04 01:19:02;;;;;;;2.72;2.42;;;;;;;;;;4991130;28;20252;-88
2023/06/04 01:21:35;;;;;;;3.75;2.88;;;;;;;;;;4990577;28;20712;-89
2023/06/04 01:24:02;;;;;;;2.35;2.22;;;;;;;;;;4973707;28;20213;-89
2023/06/04 01:26:30;;;;;;;1.70;1.48;;;;;;;;;;4971176;28;20751;-88
2023/06/04 01:28:58;;;;;;;0.98;0.98;;;;;;;;;;4972528;28;20213;-88
2023/06/04 01:31:25;;;;;;;1.10;1.10;;;;;;;;;;4972617;28;20258;-87
2023/06/04 01:33:52;;;;;;;0.93;0.93;;;;;;;;;;4971938;28;20197;-88
2023/06/04 01:36:20;;;;;;;1.40;1.27;;;;;;;;;;4971675;28;20608;-88
2023/06/04 01:38:48;;;;;;;1.13;1.13;;;;;;;;;;4971851;28;20662;-89
2023/06/04 01:41:15;;;;;;;1.38;1.23;;;;;;;;;;4971244;28;20241;-88
2023/06/04 01:43:42;;;;;;;1.40;1.30;;;;;;;;;;4971737;28;20201;-89
2023/06/04 01:46:08;;;;;;;1.15;1.10;;;;;;;;;;4971925;28;20707;-89
2023/06/04 01:48:36;;;;;;;1.38;1.38;;;;;;;;;;4971242;28;20191;-87
2023/06/04 01:51:03;;;;;;;1.42;1.42;;;;;;;;;;4972676;28;20201;-88
2023/06/04 01:53:30;;;;;;;1.73;1.65;;;;;;;;;;4971287;28;20205;-89
2023/06/04 01:55:59;;;;;;;1.85;1.75;;;;;;;;;;4971162;28;20238;-88
2023/06/04 01:58:28;;;;;;;1.98;1.88;;;;;;;;;;4971564;28;20222;-88
2023/06/04 02:00:59;;;;;;;1.90;1.70;;;;;;;;;;4971507;28;20660;-89
2023/06/04 02:03:27;;;;;;;3.65;1.80;;;;;;;;;;4971048;28;20674;-89
2023/06/04 02:05:53;;;;;;;2.17;1.98;;;;;;;;;;4971699;28;20240;-88
2023/06/04 02:08:25;;;;;;;1.95;1.85;;;;;;;;;;4971722;28;20253;-88
2023/06/04 02:10:52;;;;;;;2.35;1.80;;;;;;;;;;4971271;28;20250;-89
2023/06/04 02:13:21;;;;;;;1.83;1.73;;;;;;;;;;4971568;28;20294;-89
2023/06/04 02:15:50;;;;;;;3.92;2.38;;;;;;;;;;4972486;28;20581;-89
2023/06/04 02:18:18;;;;;;;2.17;2.07;;;;;;;;;;4970775;28;20206;-89
2023/06/04 02:20:45;;;;;;;3.13;1.50;;;;;;;;;;4972161;28;20289;-88
2023/06/04 02:23:12;;;;;;;2.25;1.27;;;;;;;;;;4970883;28;20317;-90
2023/06/04 02:25:39;;;;;;;1.30;1.30;;;;;;;;;;4971182;28;20206;-89
2023/06/04 02:28:06;;;;;;;1.80;1.70;;;;;;;;;;4971264;28;20203;-88
2023/06/04 02:30:35;;;;;;;1.10;1.05;;;;;;;;;;4970963;28;20229;-87
2023/06/04 02:33:03;;;;;;;1.00;0.97;;;;;;;;;;4970983;28;20202;-88
2023/06/04 02:35:33;;;;;;;1.00;1.00;;;;;;;;;;4971508;28;20219;-88
2023/06/04 02:38:02;;;;;;;0.82;0.82;;;;;;;;;;4973892;28;20300;-88
2023/06/04 02:40:30;;;;;;;0.90;0.90;;;;;;;;;;4984658;28;20199;-88
2023/06/04 02:42:57;;;;;;;0.80;0.80;;;;;;;;;;4990713;28;20233;-87
2023/06/04 02:45:26;;;;;;;0.85;0.85;;;;;;;;;;4989915;28;20202;-88
2023/06/04 02:47:54;;;;;;;1.02;1.02;;;;;;;;;;4990585;28;20198;-87
2023/06/04 02:50:21;;;;;;;0.90;0.90;;;;;;;;;;4996799;28;20204;-88
2023/06/04 02:52:48;;;;;;;1.20;1.20;;;;;;;;;;5002826;28;20220;-89
2023/06/04 02:55:15;;;;;;;1.25;1.10;;;;;;;;;;5014258;28;20274;-86
2023/06/04 02:57:43;;;;;;;0.80;0.80;;;;;;;;;;4989742;28;20291;-88
2023/06/04 03:00:12;;;;;;;0.98;0.93;;;;;;;;;;4975380;28;20202;-87
2023/06/04 03:02:40;;;;;;;1.23;1.13;;;;;;;;;;4974910;28;20265;-87
2023/06/04 03:05:10;;;;;;;0.95;0.95;;;;;;;;;;4974462;28;20294;-88
2023/06/04 03:07:37;;;;;;;1.10;1.08;;;;;;;;;;4975499;28;20217;-88
2023/06/04 03:10:04;;;;;;;0.90;0.90;;;;;;;;;;4974942;28;20205;-88
2023/06/04 03:12:31;;;;;;;0.88;0.88;;;;;;;;;;4975269;28;20223;-88
2023/06/04 03:14:58;;;;;;;0.85;0.85;;;;;;;;;;4976574;28;20212;-88
2023/06/04 03:17:25;;;;;;;0.93;0.93;;;;;;;;;;4974965;28;20212;-89
2023/06/04 03:19:51;;;;;;;0.80;0.80;;;;;;;;;;4973836;28;20208;-90
2023/06/04 03:22:20;;;;;;;0.88;0.88;;;;;;;;;;4974353;28;20236;-88
2023/06/04 03:24:47;;;;;;;3.95;0.88;;;;;;;;;;4974042;28;20208;-88
2023/06/04 03:27:14;;;;;;;1.17;1.00;;;;;;;;;;4974273;28;20207;-89
2023/06/04 03:29:41;;;;;;;0.97;0.87;;;;;;;;;;4974816;28;20259;-89
2023/06/04 03:32:08;;;;;;;1.43;1.00;;;;;;;;;;4986268;28;20211;-87
2023/06/04 03:34:35;;;;;;;1.23;0.70;;;;;;;;;;4983968;28;20204;-88
2023/06/04 03:37:02;;;;;;;0.63;0.63;;;;;;;;;;4982677;28;20230;-87
2023/06/04 03:39:31;;;;;;;1.00;0.70;;;;;;;;;;4974008;28;20758;-87
2023/06/04 03:41:57;;;;;;;1.20;1.20;;;;;;;;;;4983523;28;20490;-87
2023/06/04 03:44:25;;;;;;;0.80;0.80;;;;;;;;;;4990684;28;20258;-87
2023/06/04 03:46:52;;;;;;;0.80;0.80;;;;;;;;;;4972775;28;20222;-89
2023/06/04 03:49:20;;;;;;;2.23;1.33;;;;;;;;;;4973629;28;20213;-88
2023/06/04 03:51:46;;;;;;;1.02;1.02;;;;;;;;;;4974479;28;20700;-89
2023/06/04 03:54:16;;;;;;;1.83;1.37;;;;;;;;;;4973280;28;20253;-87
2023/06/04 03:56:45;;;;;;;1.05;0.77;;;;;;;;;;4973100;28;20229;-88
2023/06/04 03:59:12;;;;;;;0.88;0.88;;;;;;;;;;4973057;28;20738;-89
2023/06/04 04:01:39;;;;;;;1.03;1.03;;;;;;;;;;4973399;28;20208;-88
2023/06/04 04:04:06;;;;;;;1.10;1.10;;;;;;;;;;4973187;28;20213;-87
2023/06/04 04:06:35;;;;;;;0.83;0.83;;;;;;;;;;4974059;28;20248;-87
2023/06/04 04:09:06;;;;;;;1.00;1.00;;;;;;;;;;4975445;28;20208;-87
2023/06/04 04:11:33;;;;;;;2.20;1.08;;;;;;;;;;4974930;28;20230;-88
2023/06/04 04:14:02;;;;;;;1.02;1.02;;;;;;;;;;4973117;28;20247;-87
2023/06/04 04:16:29;;;;;;;1.80;1.65;;;;;;;;;;4972641;28;20221;-87
2023/06/04 04:18:57;;;;;;;1.15;1.08;;;;;;;;;;4972671;28;20228;-88
2023/06/04 04:21:24;;;;;;;1.15;1.10;;;;;;;;;;4973643;28;20404;-87
2023/06/04 04:23:52;;;;;;;1.40;1.30;;;;;;;;;;4973388;28;20235;-87
2023/06/04 04:26:19;;;;;;;0.75;0.75;;;;;;;;;;4988557;28;20684;-87
2023/06/04 04:28:46;;;;;;;5.18;1.55;;;;;;;;;;4992963;28;20207;-89
2023/06/04 04:31:15;;;;;;;1.23;1.20;;;;;;;;;;4991938;28;20210;-87
2023/06/04 04:33:43;;;;;;;1.20;1.15;;;;;;;;;;4991906;28;20667;-88
2023/06/04 04:36:18;;;;;;;1.05;1.05;;;;;;;;;;4992800;28;20278;-88
2023/06/04 04:38:45;;;;;;;0.98;0.98;;;;;;;;;;4992541;28;20224;-89
2023/06/04 04:41:12;;;;;;;1.38;1.27;;;;;;;;;;4992123;28;20203;-87
2023/06/04 04:43:40;;;;;;;1.75;1.65;;;;;;;;;;4991842;28;20236;-88
2023/06/04 04:46:07;;;;;;;1.30;1.17;;;;;;;;;;4992050;28;20691;-88
2023/06/04 04:48:38;;;;;;;1.58;1.48;;;;;;;;;;4992439;28;20204;-87
2023/06/04 04:51:07;;;;;;;1.05;1.05;;;;;;;;;;4991934;28;20703;-87
2023/06/04 04:53:34;;;;;;;1.55;1.33;;;;;;;;;;4992044;28;20274;-88
2023/06/04 04:56:01;;;;;;;1.70;1.60;;;;;;;;;;4978644;28;20595;-88
2023/06/04 04:58:28;;;;;;;2.97;1.90;;;;;;;;;;4972193;28;20240;-88
2023/06/04 05:00:57;;;;;;;1.30;1.30;;;;;;;;;;4972403;28;20226;-87
2023/06/04 05:03:29;;;;;;;1.48;1.38;;;;;;;;;;4972912;28;20235;-87
2023/06/04 05:05:58;;;;;;;1.52;1.42;;;;;;;;;;4972038;28;20345;-87
2023/06/04 05:08:25;;;;;;;1.67;1.58;;;;;;;;;;4971317;28;20607;-88
2023/06/04 05:10:55;;;;;;;1.58;1.35;;;;;;;;;;4973003;28;20622;-87
2023/06/04 05:13:24;;;;;;;2.22;1.75;;;;;;;;;;4972051;28;20210;-88
2023/06/04 05:15:56;;;;;;;1.40;1.30;;;;;;;;;;4972615;28;20288;-87
2023/06/04 05:18:28;;;;;;;1.50;1.50;;;;;;;;;;4971828;28;20230;-88
2023/06/04 05:20:57;;;;;;;3.80;1.90;;;;;;;;;;4974899;28;20223;-88
2023/06/04 05:23:26;;;;;;;1.23;1.23;;;;;;;;;;4980356;28;20233;-87
2023/06/04 05:25:54;;;;;;;1.17;1.17;;;;;;;;;;4994139;28;20231;-88
2023/06/04 05:28:24;;;;;;;1.80;1.70;;;;;;;;;;4981228;28;20213;-88
2023/06/04 05:30:51;;;;;;;1.17;1.17;;;;;;;;;;4972246;28;20216;-87
2023/06/04 05:33:18;;;;;;;3.30;1.58;;;;;;;;;;4971856;28;20559;-88
2023/06/04 05:35:48;;;;;;;1.63;1.52;;;;;;;;;;4972068;28;20207;-86
2023/06/04 05:38:17;;;;;;;1.98;1.85;;;;;;;;;;4988977;28;20305;-88
2023/06/04 05:40:45;;;;;;;2.20;1.92;;;;;;;;;;4991975;28;20205;-88
2023/06/04 05:43:12;;;;;;;3.08;2.08;;;;;;;;;;4990810;28;20235;-88
2023/06/04 05:45:39;;;;;;;2.17;2.08;;;;;;;;;;4990993;28;20209;-88
2023/06/04 05:48:07;;;;;;;1.30;1.30;;;;;;;;;;4991219;28;20207;-88
2023/06/04 05:50:36;;;;;;;1.55;1.50;;;;;;;;;;4991746;28;20195;-88
2023/06/04 05:53:03;;;;;;;2.38;1.92;;;;;;;;;;4992155;28;20211;-90
2023/06/04 05:55:30;;;;;;;3.45;1.83;;;;;;;;;;4990984;28;20201;-88
2023/06/04 05:57:59;;;;;;;1.83;1.73;;;;;;;;;;4991926;28;20205;-87
2023/06/04 06:00:26;;;;;;;2.13;1.88;;;;;;;;;;4990536;28;20565;-87
2023/06/04 06:02:53;;;;;;;1.88;1.77;;;;;;;;;;4991139;28;20280;-90
2023/06/04 06:05:20;;;;;;;1.98;1.88;;;;;;;;;;4990375;28;20244;-88
2023/06/04 06:07:48;;;;;;;3.03;1.70;;;;;;;;;;5000318;28;20205;-87
2023/06/04 06:10:15;;;;;;;2.00;1.90;;;;;;;;;;5001361;28;20198;-88
2023/06/04 06:12:42;;;;;;;3.55;2.25;;;;;;;;;;4977690;28;20228;-88
2023/06/04 06:15:12;;;;;;;2.58;1.60;;;;;;;;;;4972940;28;20214;-88
2023/06/04 06:17:39;;;;;;;3.25;2.55;;;;;;;;;;4971436;28;20225;-87
2023/06/04 06:20:08;;;;;;;2.20;2.10;;;;;;;;;;4971351;28;20200;-88
2023/06/04 06:22:35;;;;;;;2.22;2.13;;;;;;;;;;4971178;28;20237;-88
2023/06/04 06:25:05;;;;;;;3.33;2.20;;;;;;;;;;4972117;28;20697;-88
2023/06/04 06:27:33;;;;;;;2.65;2.47;;;;;;;;;;4972217;28;20288;-89
2023/06/04 06:30:00;;;;;;;2.65;2.47;;;;;;;;;;4972657;28;20208;-88
2023/06/04 06:32:29;;;;;;;3.55;2.70;;;;;;;;;;4971819;28;20233;-89
2023/06/04 06:34:57;;;;;;;2.72;2.53;;;;;;;;;;4971480;28;20213;-89
2023/06/04 06:37:24;;;;;;;2.50;2.40;;;;;;;;;;4972039;28;20272;-88
2023/06/04 06:39:51;;;;;;;3.00;2.67;;;;;;;;;;4972152;28;20202;-89
2023/06/04 06:42:19;;;;;;;2.78;2.58;;;;;;;;;;4971678;28;20205;-87
2023/06/04 06:44:46;;;;;;;3.00;2.70;;;;;;;;;;4972177;28;20217;-89
2023/06/04 06:47:14;;;;;;;2.63;2.50;;;;;;;;;;4974347;28;20199;-88
2023/06/04 06:49:42;;;;;;;2.45;2.28;;;;;;;;;;4977689;28;20202;-87
2023/06/04 06:52:10;;;;;;;2.95;2.65;;;;;;;;;;4985797;28;20242;-89
2023/06/04 06:54:38;;;;;;;3.08;2.78;;;;;;;;;;4985449;28;20266;-88
2023/06/04 06:57:08;;;;;;;2.33;2.20;;;;;;;;;;4985631;28;20202;-88
2023/06/04 06:59:36;;;;;;;2.40;2.20;;;;;;;;;;4986939;28;20616;-88
2023/06/04 07:02:10;;;;;;;2.88;2.40;;;;;;;;;;4989016;28;20225;-89
2023/06/04 07:04:37;;;;;;;2.45;2.25;;;;;;;;;;4989582;28;20265;-87
2023/06/04 07:07:07;;;;;;;3.28;2.65;;;;;;;;;;5003878;28;20205;-87
2023/06/04 07:09:34;;;;;;;3.05;2.78;;;;;;;;;;4993915;28;20307;-88
2023/06/04 07:12:02;;;;;;;2.40;2.20;;;;;;;;;;4993390;28;20217;-87
2023/06/04 07:14:39;;;;;;;4.60;1.85;;;;;;;;;;4992716;28;20209;-88
2023/06/04 07:17:08;;;;;;;2.50;2.30;;;;;;;;;;4983536;28;20312;-86
2023/06/04 07:19:35;;;;;;;2.42;2.22;;;;;;;;;;4989541;28;20293;-88
2023/06/04 07:22:02;;;;;;;2.80;2.50;;;;;;;;;;4992274;28;20241;-89
2023/06/04 07:24:31;;;;;;;2.85;2.50;;;;;;;;;;4989922;28;20257;-88
2023/06/04 07:26:58;;;;;;;2.53;2.35;;;;;;;;;;4990600;28;20236;-89
2023/06/04 07:29:26;;;;;;;3.53;3.30;;;;;;;;;;4988382;28;20228;-88
2023/06/04 07:31:56;;;;;;;3.13;2.50;;;;;;;;;;4971013;28;20314;-87
2023/06/04 07:34:23;;;;;;;2.20;2.10;;;;;;;;;;4985081;28;20690;-87
2023/06/04 07:36:50;;;;;;;2.25;2.15;;;;;;;;;;4995151;28;20225;-87
2023/06/04 07:39:17;;;;;;;3.22;2.28;;;;;;;;;;4991644;28;20218;-89
2023/06/04 07:41:47;;;;;;;2.00;1.90;;;;;;;;;;4993341;28;20316;-89
2023/06/04 07:44:16;;;;;;;2.55;2.35;;;;;;;;;;4992788;28;20244;-88
2023/06/04 07:46:43;;;;;;;3.35;2.50;;;;;;;;;;4993108;28;20228;-87
2023/06/04 07:49:10;;;;;;;3.53;3.22;;;;;;;;;;4992500;28;20240;-88
2023/06/04 07:51:38;;;;;;;2.90;2.70;;;;;;;;;;4993364;28;20801;-88
2023/06/04 07:54:05;;;;;;;3.00;2.78;;;;;;;;;;4992421;28;20225;-89
2023/06/04 07:56:32;;;;;;;3.47;3.17;;;;;;;;;;4992712;28;20316;-89
2023/06/04 07:59:01;;;;;;;3.80;3.50;;;;;;;;;;4992227;28;20249;-88
2023/06/04 08:01:32;;;;;;;2.90;2.70;;;;;;;;;;4976038;28;20230;-89
2023/06/04 08:04:00;;;;;;;2.70;2.50;;;;;;;;;;4975857;28;20246;-87
2023/06/04 08:06:27;;;;;;;2.55;2.45;;;;;;;;;;4971913;28;20352;-88
2023/06/04 08:08:55;;;;;;;7.00;2.88;;;;;;;;;;4971467;28;20226;-88
2023/06/04 08:11:25;;;;;;;2.78;2.58;;;;;;;;;;4972741;28;20329;-89
2023/06/04 08:13:56;;;;;;;3.60;3.00;;;;;;;;;;4981113;28;20221;-90
2023/06/04 08:16:27;;;;;;;3.33;2.95;;;;;;;;;;4982047;28;20782;-90
2023/06/04 08:18:54;;;;;;;4.03;2.78;;;;;;;;;;4982832;28;20685;-89
2023/06/04 08:21:29;;;;;;;2.80;2.60;;;;;;;;;;4972486;28;20698;-89
2023/06/04 08:23:56;;;;;;;3.50;3.00;;;;;;;;;;4990301;28;20236;-89
2023/06/04 08:26:24;;;;;;;3.45;3.17;;;;;;;;;;4996789;28;20234;-86
2023/06/04 08:28:54;;;;;;;3.15;2.90;;;;;;;;;;5001343;28;20232;-85
2023/06/04 08:31:24;;;;;;;5.18;4.13;;;;;;;;;;5002085;28;20280;-88
2023/06/04 08:33:53;;;;;;;4.63;3.30;;;;;;;;;;4992578;28;20221;-88
2023/06/04 08:36:22;;;;;;;5.63;3.70;;;;;;;;;;4991543;28;20316;-87
2023/06/04 08:38:52;;;;;;;3.58;3.38;;;;;;;;;;4991129;28;20587;-88
2023/06/04 08:41:22;;;;;;;4.93;2.97;;;;;;;;;;4991501;28;20347;-87
2023/06/04 08:43:51;;;;;;;4.57;4.18;;;;;;;;;;4991710;28;20241;-86
2023/06/04 08:46:19;;;;;;;5.72;2.95;;;;;;;;;;4990448;28;20218;-85
2023/06/04 08:48:46;;;;;;;3.40;3.20;;;;;;;;;;4990788;28;20639;-86
2023/06/04 08:51:15;;;;;;;7.80;3.25;;;;;;;;;;4990828;28;20317;-86
2023/06/04 08:53:43;;;;;;;4.30;3.63;;;;;;;;;;4991066;28;20285;-88
2023/06/04 08:56:10;;;;;;;3.28;2.97;;;;;;;;;;4991279;28;20229;-87
2023/06/04 08:58:41;;;;;;;3.33;3.03;;;;;;;;;;4989565;28;20227;-86
2023/06/04 09:01:09;;;;;;;4.75;3.83;;;;;;;;;;4990737;28;20226;-87
2023/06/04 09:03:37;;;;;;;4.32;3.13;;;;;;;;;;4988672;28;20631;-88
2023/06/04 09:06:07;;;;;;;3.25;2.95;;;;;;;;;;4989236;28;20312;-86
2023/06/04 09:08:38;;;;;;;3.25;2.85;;;;;;;;;;4988759;28;20777;-88
2023/06/04 09:11:17;;;;;;;4.82;3.05;;;;;;;;;;4988184;28;20233;-87
2023/06/04 09:14:37;;;;;;;5.72;3.08;;;;;;;;;;4988760;28;20233;-87
2023/06/04 09:20:54;;;;;;;5.47;2.90;;;;;;;;;;4886151;29;20228;-87
2023/06/04 09:23:22;;;;;;;4.75;3.13;;;;;;;;;;4818318;29;20242;-86
2023/06/04 09:25:51;;;;;;;3.63;2.95;;;;;;;;;;4892295;29;20733;-87
2023/06/04 09:28:21;;;;;;;5.15;3.65;;;;;;;;;;4948308;28;20283;-86
2023/06/04 09:30:52;;;;;;;5.00;4.10;;;;;;;;;;4990977;28;20236;-87
2023/06/04 09:33:20;;;;;;;5.38;3.05;;;;;;;;;;4989998;28;20228;-87
2023/06/04 09:35:55;;;;;;;4.30;3.38;;;;;;;;;;4989801;28;20237;-86
2023/06/04 09:38:22;;;;;;;4.55;2.88;;;;;;;;;;4990069;28;20221;-88
2023/06/04 09:40:50;;;;;;;3.72;3.42;;;;;;;;;;4990640;28;20233;-88
2023/06/04 09:43:23;;;;;;;3.90;3.50;;;;;;;;;;4990112;28;20296;-88
2023/06/04 09:45:50;;;;;;;3.85;2.75;;;;;;;;;;4989764;28;20250;-87
2023/06/04 09:48:20;;;;;;;4.28;3.15;;;;;;;;;;4990091;28;20271;-87
2023/06/04 09:50:47;;;;;;;3.50;3.20;;;;;;;;;;4988935;28;20593;-87
2023/06/04 09:53:15;;;;;;;4.55;3.25;;;;;;;;;;4989293;28;20663;-87
2023/06/04 09:55:42;;;;;;;3.20;2.90;;;;;;;;;;4990520;28;20623;-88
2023/06/04 09:58:12;;;;;;;4.40;3.42;;;;;;;;;;4989370;28;20225;-88
2023/06/04 10:00:40;;;;;;;3.33;3.13;;;;;;;;;;4989888;28;20252;-87
2023/06/04 10:03:08;;;;;;;3.15;2.95;;;;;;;;;;4989965;28;20225;-87
2023/06/04 10:05:35;;;;;;;3.47;3.20;;;;;;;;;;4988733;28;20287;-87
2023/06/04 10:08:04;;;;;;;3.75;3.15;;;;;;;;;;4989393;28;20229;-88
2023/06/04 10:10:35;;;;;;;5.10;3.55;;;;;;;;;;4989913;28;20225;-85
2023/06/04 10:13:06;;;;;;;3.45;3.25;;;;;;;;;;4989261;28;20229;-87
2023/06/04 10:15:36;;;;;;;3.88;2.95;;;;;;;;;;4989707;28;20228;-86
2023/06/04 10:18:04;;;;;;;5.60;3.45;;;;;;;;;;4990564;28;20605;-92
2023/06/04 10:20:31;;;;;;;3.88;2.80;;;;;;;;;;4990485;28;20229;-92
2023/06/04 10:22:58;;;;;;;4.32;3.65;;;;;;;;;;4990214;28;20747;-89
2023/06/04 10:25:27;;;;;;;3.50;3.30;;;;;;;;;;4991101;28;20240;-90
2023/06/04 10:27:54;;;;;;;3.13;2.90;;;;;;;;;;4990961;28;20233;-90
2023/06/04 10:30:21;;;;;;;3.03;2.83;;;;;;;;;;4990052;28;20232;-87
2023/06/04 10:32:51;;;;;;;3.45;3.15;;;;;;;;;;4988917;28;20229;-87
2023/06/04 10:35:18;;;;;;;3.63;3.17;;;;;;;;;;4990110;28;20225;-87
2023/06/04 10:37:47;;;;;;;3.28;2.97;;;;;;;;;;4990205;28;20280;-87
2023/06/04 10:40:15;;;;;;;3.17;2.67;;;;;;;;;;4996654;28;20217;-86
2023/06/04 10:42:43;;;;;;;4.97;2.72;;;;;;;;;;4990476;28;20232;-87
2023/06/04 10:45:10;;;;;;;3.80;3.50;;;;;;;;;;4990528;28;20244;-87
2023/06/04 10:47:40;;;;;;;3.97;2.80;;;;;;;;;;4988176;28;20233;-87
2023/06/04 10:50:12;;;;;;;4.80;3.72;;;;;;;;;;4989157;28;20233;-86
2023/06/04 10:52:39;;;;;;;3.30;2.95;;;;;;;;;;4988780;28;20252;-87
2023/06/04 10:55:08;;;;;;;2.75;2.53;;;;;;;;;;4990246;28;20218;-87
2023/06/04 10:57:35;;;;;;;3.53;3.22;;;;;;;;;;4988988;28;20237;-87
2023/06/04 11:00:09;;;;;;;3.67;2.95;;;;;;;;;;4989597;28;20271;-86
2023/06/04 11:02:38;;;;;;;3.30;3.00;;;;;;;;;;4988284;28;20660;-86
2023/06/04 11:05:08;;;;;;;3.28;3.08;;;;;;;;;;4989357;28;20249;-87
2023/06/04 11:07:44;;;;;;;3.97;2.63;;;;;;;;;;4989281;28;20236;-87
2023/06/04 11:10:11;;;;;;;4.15;3.58;;;;;;;;;;4993408;28;20689;-87
2023/06/04 11:12:45;;;;;;;4.90;3.65;;;;;;;;;;4992652;28;20548;-88
2023/06/04 11:15:13;;;;;;;3.10;2.90;;;;;;;;;;4993336;28;20229;-87
2023/06/04 11:17:50;;;;;;;6.85;3.70;;;;;;;;;;4993022;28;20263;-87
2023/06/04 11:20:17;;;;;;;5.57;3.47;;;;;;;;;;4992620;28;20647;-87
2023/06/04 11:22:51;;;;;;;3.25;3.05;;;;;;;;;;4991614;28;20287;-86
2023/06/04 11:25:19;;;;;;;4.15;3.33;;;;;;;;;;4997688;28;20249;-87
2023/06/04 11:27:46;;;;;;;4.18;2.72;;;;;;;;;;4993649;28;20287;-87
2023/06/04 11:30:13;;;;;;;3.30;3.00;;;;;;;;;;4991354;28;20311;-87
2023/06/04 11:32:40;;;;;;;4.90;3.03;;;;;;;;;;4992623;28;20324;-89
2023/06/04 11:35:07;;;;;;;3.25;2.95;;;;;;;;;;4991987;28;20225;-87
2023/06/04 11:37:35;;;;;;;3.08;2.88;;;;;;;;;;4990917;28;20230;-86
2023/06/04 11:40:05;;;;;;;2.80;2.67;;;;;;;;;;4992673;28;20225;-86
2023/06/04 11:42:33;;;;;;;3.70;2.90;;;;;;;;;;4991975;28;20627;-87
2023/06/04 11:45:00;;;;;;;3.92;3.63;;;;;;;;;;4991693;28;20244;-87
2023/06/04 11:47:27;;;;;;;4.88;3.63;;;;;;;;;;4993797;28;20232;-87
2023/06/04 11:49:56;;;;;;;3.15;2.95;;;;;;;;;;5002919;28;20232;-87
2023/06/04 11:52:23;;;;;;;4.00;3.70;;;;;;;;;;5010591;28;20225;-85
2023/06/04 11:54:51;;;;;;;3.75;3.45;;;;;;;;;;5002103;28;20729;-87
2023/06/04 11:57:19;;;;;;;3.17;2.97;;;;;;;;;;5001952;28;20295;-88
2023/06/04 11:59:46;;;;;;;3.13;2.92;;;;;;;;;;4993964;28;20237;-88
2023/06/04 12:02:13;;;;;;;4.60;3.42;;;;;;;;;;4992823;28;20652;-87
2023/06/04 12:04:41;;;;;;;3.28;3.05;;;;;;;;;;4991356;28;20292;-88
2023/06/04 12:07:09;;;;;;;4.15;3.47;;;;;;;;;;4991067;28;20706;-86
2023/06/04 12:09:37;;;;;;;3.72;3.42;;;;;;;;;;4991276;28;20674;-87
2023/06/04 12:12:05;;;;;;;3.42;3.03;;;;;;;;;;4992163;28;20386;-87
2023/06/04 12:14:33;;;;;;;3.95;3.65;;;;;;;;;;4991074;28;20221;-87
2023/06/04 12:17:00;;;;;;;3.55;3.17;;;;;;;;;;4992493;28;20291;-84
2023/06/04 12:19:28;;;;;;;4.63;4.07;;;;;;;;;;4990437;28;20280;-86
2023/06/04 12:22:04;;;;;;;4.20;3.83;;;;;;;;;;4990538;28;20259;-86
2023/06/04 12:24:39;;;;;;;4.10;3.55;;;;;;;;;;4991724;28;20694;-85
2023/06/04 12:27:06;;;;;;;4.55;3.88;;;;;;;;;;4991640;28;20236;-85
2023/06/04 12:29:35;;;;;;;4.72;4.20;;;;;;;;;;4990793;28;20310;-85
2023/06/04 12:32:03;;;;;;;4.30;3.90;;;;;;;;;;4991567;28;20233;-86
2023/06/04 12:34:30;;;;;;;5.63;4.22;;;;;;;;;;4984563;28;20225;-85
2023/06/04 12:36:57;;;;;;;6.82;4.40;;;;;;;;;;4973109;28;20229;-85
2023/06/04 12:39:24;;;;;;;6.57;4.22;;;;;;;;;;4977697;28;20229;-85
2023/06/04 12:41:53;;;;;;;5.20;4.80;;;;;;;;;;4974852;28;20225;-86
2023/06/04 12:44:21;;;;;;;5.55;4.65;;;;;;;;;;4972167;28;20198;-86
2023/06/04 12:46:49;;;;;;;4.30;3.90;;;;;;;;;;4973002;28;20223;-86
2023/06/04 12:49:16;;;;;;;4.28;3.95;;;;;;;;;;4972315;28;20206;-87
2023/06/04 12:51:43;;;;;;;5.63;5.10;;;;;;;;;;4972486;28;20210;-87
2023/06/04 12:54:11;;;;;;;5.28;4.80;;;;;;;;;;4972545;28;20210;-87
2023/06/04 12:56:38;;;;;;;6.63;4.78;;;;;;;;;;4973341;28;20594;-88
2023/06/04 12:59:06;;;;;;;4.03;3.72;;;;;;;;;;4973341;28;20220;-86
2023/06/04 13:01:34;;;;;;;4.57;4.18;;;;;;;;;;4972249;28;20236;-88
2023/06/04 13:04:03;;;;;;;5.38;3.97;;;;;;;;;;4973187;28;20637;-87
2023/06/04 13:06:39;;;;;;;3.75;3.45;;;;;;;;;;4972325;28;20630;-87
2023/06/04 13:09:09;;;;;;;4.50;4.10;;;;;;;;;;4972847;28;20599;-88
2023/06/04 13:11:38;;;;;;;4.03;3.72;;;;;;;;;;4973468;28;20223;-87
2023/06/04 13:14:05;;;;;;;4.60;3.92;;;;;;;;;;4971905;28;20244;-86
2023/06/04 13:16:33;;;;;;;3.90;3.70;;;;;;;;;;4972170;28;20690;-89
2023/06/04 13:19:00;;;;;;;3.83;3.55;;;;;;;;;;4972251;28;20202;-88
2023/06/04 13:21:29;;;;;;;6.18;4.28;;;;;;;;;;4972568;28;20206;-87
2023/06/04 13:23:58;;;;;;;4.45;4.05;;;;;;;;;;4971493;28;20663;-89
2023/06/04 13:26:26;;;;;;;7.55;4.53;;;;;;;;;;4971969;28;20253;-89
2023/06/04 13:28:54;;;;;;;5.63;4.18;;;;;;;;;;4971238;28;20207;-87
2023/06/04 13:31:21;;;;;;;4.40;4.07;;;;;;;;;;4971736;28;20313;-87
2023/06/04 13:33:48;;;;;;;4.65;4.28;;;;;;;;;;4972785;28;20202;-87
2023/06/04 13:36:16;;;;;;;4.05;3.75;;;;;;;;;;4971218;28;20689;-89
2023/06/04 13:38:46;;;;;;;4.70;4.40;;;;;;;;;;4971628;28;20598;-87
2023/06/04 13:41:15;;;;;;;4.47;3.80;;;;;;;;;;4972994;28;20197;-88
2023/06/04 13:43:46;;;;;;;4.85;4.25;;;;;;;;;;4971904;28;20255;-87
2023/06/04 13:46:12;;;;;;;4.60;3.85;;;;;;;;;;4971641;28;20277;-88
2023/06/04 13:48:40;;;;;;;3.35;3.15;;;;;;;;;;4971568;28;20690;-88
2023/06/04 13:51:07;;;;;;;3.03;2.83;;;;;;;;;;4972174;28;20208;-88
2023/06/04 13:53:33;;;;;;;3.20;3.00;;;;;;;;;;4971614;28;20671;-88
2023/06/04 13:56:02;;;;;;;3.25;3.05;;;;;;;;;;4972223;28;20202;-89
2023/06/04 13:58:29;;;;;;;4.15;3.80;;;;;;;;;;4971404;28;20205;-87
2023/06/04 14:00:56;;;;;;;3.63;3.42;;;;;;;;;;4971148;28;20682;-87
2023/06/04 14:03:23;;;;;;;3.55;3.35;;;;;;;;;;4971104;28;20241;-87
2023/06/04 14:05:50;;;;;;;3.53;3.22;;;;;;;;;;4971487;28;20250;-86
2023/06/04 14:08:17;;;;;;;3.30;3.10;;;;;;;;;;4972348;28;20213;-88
2023/06/04 14:10:44;;;;;;;3.53;3.22;;;;;;;;;;4971300;28;20202;-89
2023/06/04 14:13:14;;;;;;;3.97;3.67;;;;;;;;;;4971463;28;20250;-87
2023/06/04 14:15:41;;;;;;;3.05;2.83;;;;;;;;;;4971686;28;20253;-87
2023/06/04 14:18:08;;;;;;;3.78;3.47;;;;;;;;;;4971352;28;20620;-88
2023/06/04 14:20:36;;;;;;;2.67;2.47;;;;;;;;;;4971115;28;20288;-87
2023/06/04 14:23:03;;;;;;;4.18;2.83;;;;;;;;;;4971041;28;20451;-89
2023/06/04 14:25:32;;;;;;;3.22;3.03;;;;;;;;;;4976726;28;20232;-87
2023/06/04 14:27:59;;;;;;;3.38;3.17;;;;;;;;;;4991452;28;20208;-88
2023/06/04 14:30:28;;;;;;;3.20;3.00;;;;;;;;;;4975891;28;20209;-87
2023/06/04 14:32:55;;;;;;;7.53;3.15;;;;;;;;;;4975114;28;20205;-85
2023/06/04 14:35:22;;;;;;;3.03;2.92;;;;;;;;;;4971076;28;20202;-88
2023/06/04 14:37:50;;;;;;;3.25;3.05;;;;;;;;;;4971237;28;20249;-87
2023/06/04 14:40:18;;;;;;;3.10;2.90;;;;;;;;;;4971524;28;20202;-87
2023/06/04 14:42:47;;;;;;;3.47;2.80;;;;;;;;;;4972270;28;20212;-85
2023/06/04 14:45:14;;;;;;;3.35;3.15;;;;;;;;;;4973833;28;20241;-87
2023/06/04 14:47:42;;;;;;;3.15;2.92;;;;;;;;;;4974871;28;20726;-89
2023/06/04 14:50:09;;;;;;;3.38;3.15;;;;;;;;;;4974853;28;20198;-88
2023/06/04 14:52:37;;;;;;;3.45;3.25;;;;;;;;;;4974397;28;20668;-88
2023/06/04 14:55:04;;;;;;;3.33;3.03;;;;;;;;;;4975435;28;20209;-89